Time;durP1;ratioP1;P1;durP2;ratioP2;P2;SDS_P1;SDS_P2;PMS_P1;PMS_P2;Temp;Humidity;BMP_temperature;BMP_pressure;BME280_temperature;BME280_humidity;BME280_pressure;Samples;Min_cycle;Max_cycle;Signal;HPM_P1;HPM_P2
2021/04/25 00:01:12;;;;;;;5.53;2.30;;;8.50;1.00;;;;;;5052777;28;20480;-80
2021/04/25 00:03:38;;;;;;;4.00;2.47;;;8.50;99.90;;;;;;5051653;28;20276;-81
2021/04/25 00:06:04;;;;;;;5.10;2.47;;;8.50;99.90;;;;;;5053046;28;20168;-80
2021/04/25 00:08:31;;;;;;;8.53;2.97;;;8.50;99.90;;;;;;5052967;28;20168;-80
2021/04/25 00:10:58;;;;;;;8.47;2.47;;;8.50;99.90;;;;;;5053396;28;20237;-81
2021/04/25 00:13:23;;;;;;;4.77;2.33;;;8.50;1.00;;;;;;5053222;28;20197;-80
2021/04/25 00:15:49;;;;;;;8.23;2.77;;;8.40;1.00;;;;;;5052175;28;20169;-78
2021/04/25 00:18:15;;;;;;;4.40;2.67;;;8.40;25.60;;;;;;5051192;28;20173;-80
2021/04/25 00:20:40;;;;;;;5.03;2.33;;;8.30;99.90;;;;;;5052095;28;20540;-82
2021/04/25 00:23:06;;;;;;;7.30;3.17;;;8.30;99.90;;;;;;5050739;28;20201;-81
2021/04/25 00:25:32;;;;;;;6.73;3.47;;;8.30;42.00;;;;;;5056093;28;20531;-77
2021/04/25 00:27:57;;;;;;;6.00;2.73;;;8.30;92.70;;;;;;5054819;28;20172;-80
2021/04/25 00:30:23;;;;;;;7.30;2.70;;;8.20;1.00;;;;;;5055657;28;20679;-81
2021/04/25 00:32:50;;;;;;;4.77;2.40;;;8.20;1.00;;;;;;5056150;28;20212;-83
2021/04/25 00:35:17;;;;;;;4.90;2.50;;;8.10;1.00;;;;;;5055413;28;20222;-80
2021/04/25 00:37:44;;;;;;;5.57;2.93;;;8.20;99.90;;;;;;5055537;28;20184;-81
2021/04/25 00:40:12;;;;;;;7.00;2.87;;;8.10;1.00;;;;;;5055412;28;20211;-76
2021/04/25 00:42:38;;;;;;;3.87;2.30;;;8.00;99.90;;;;;;5055770;28;20234;-80
2021/04/25 00:45:12;;;;;;;3.57;2.10;;;8.00;99.90;;;;;;5055469;28;20633;-79
2021/04/25 00:47:39;;;;;;;5.50;2.60;;;7.90;1.00;;;;;;5054617;28;20225;-80
2021/04/25 00:50:05;;;;;;;4.17;2.20;;;7.80;99.90;;;;;;5055784;28;20173;-80
2021/04/25 00:52:37;;;;;;;7.50;2.83;;;7.70;99.90;;;;;;5054988;28;20227;-78
2021/04/25 00:55:04;;;;;;;6.30;2.90;;;7.70;1.00;;;;;;5055733;28;20660;-80
2021/04/25 00:57:30;;;;;;;9.23;2.90;;;7.70;99.90;;;;;;5055471;28;20191;-77
2021/04/25 00:59:56;;;;;;;7.37;3.10;;;7.70;99.90;;;;;;5054712;28;20664;-80
2021/04/25 01:02:23;;;;;;;6.50;3.07;;;7.60;55.10;;;;;;5054767;28;20680;-77
2021/04/25 01:04:49;;;;;;;5.73;2.53;;;7.60;99.90;;;;;;5055761;28;20253;-77
2021/04/25 01:07:14;;;;;;;7.23;3.07;;;7.50;23.40;;;;;;5055121;28;20633;-80
2021/04/25 01:09:41;;;;;;;6.27;3.00;;;7.50;99.90;;;;;;5054808;28;20173;-78
2021/04/25 01:12:08;;;;;;;5.80;3.17;;;7.50;99.90;;;;;;5055387;28;20165;-78
2021/04/25 01:14:33;;;;;;;5.60;3.03;;;7.40;1.00;;;;;;5055071;28;20254;-77
2021/04/25 01:16:59;;;;;;;5.87;3.40;;;7.30;1.00;;;;;;5054948;28;20657;-77
2021/04/25 01:19:25;;;;;;;5.57;2.93;;;7.30;27.50;;;;;;5055162;28;20180;-77
2021/04/25 01:21:50;;;;;;;6.47;3.20;;;7.20;99.90;;;;;;5054553;28;20671;-76
2021/04/25 01:24:16;;;;;;;6.53;3.20;;;7.20;99.90;;;;;;5055203;28;20168;-80
2021/04/25 01:26:42;;;;;;;8.03;3.60;;;7.20;99.90;;;;;;5054601;28;20252;-77
2021/04/25 01:29:07;;;;;;;10.00;3.87;;;7.10;99.90;;;;;;5054484;28;20176;-77
2021/04/25 01:31:33;;;;;;;8.57;3.63;;;7.20;99.90;;;;;;5054873;28;20185;-80
2021/04/25 01:33:59;;;;;;;7.47;3.47;;;7.10;99.90;;;;;;5054798;28;20219;-78
2021/04/25 01:36:25;;;;;;;7.73;3.70;;;7.10;99.90;;;;;;5053768;28;20533;-81
2021/04/25 01:38:51;;;;;;;8.57;4.47;;;7.10;1.00;;;;;;5054407;28;20263;-76
2021/04/25 01:41:17;;;;;;;9.17;3.90;;;7.00;1.00;;;;;;5054968;28;20166;-78
2021/04/25 01:43:46;;;;;;;7.43;4.20;;;7.00;1.00;;;;;;5053961;28;20200;-76
2021/04/25 01:46:12;;;;;;;7.20;4.10;;;6.90;1.00;;;;;;5054393;28;20260;-76
2021/04/25 01:48:38;;;;;;;7.87;4.20;;;6.90;1.00;;;;;;5054591;28;20633;-78
2021/04/25 01:51:04;;;;;;;7.83;4.87;;;6.90;1.00;;;;;;5054604;28;20219;-77
2021/04/25 01:53:29;;;;;;;7.30;4.27;;;6.90;1.00;;;;;;5054224;28;20258;-77
2021/04/25 01:55:55;;;;;;;7.17;4.17;;;6.80;1.00;;;;;;5054595;28;20176;-78
2021/04/25 01:58:21;;;;;;;7.77;4.53;;;6.80;1.00;;;;;;5053529;28;20185;-79
2021/04/25 02:00:47;;;;;;;8.20;4.50;;;6.80;1.00;;;;;;5054611;28;20264;-79
2021/04/25 02:03:13;;;;;;;8.53;4.00;;;6.80;1.00;;;;;;5053757;28;20208;-80
2021/04/25 02:05:40;;;;;;;8.83;4.43;;;6.70;1.00;;;;;;5054421;28;21035;-80
2021/04/25 02:08:07;;;;;;;8.60;4.70;;;6.70;1.00;;;;;;5054406;28;20180;-81
2021/04/25 02:10:33;;;;;;;7.50;5.00;;;6.70;1.00;;;;;;5053880;28;20176;-81
2021/04/25 02:12:59;;;;;;;9.33;4.63;;;6.70;1.00;;;;;;5053570;28;20289;-79
2021/04/25 02:15:26;;;;;;;9.17;4.57;;;6.60;1.00;;;;;;5054215;28;20215;-78
2021/04/25 02:17:52;;;;;;;7.77;4.70;;;6.60;1.00;;;;;;5054298;28;20173;-79
2021/04/25 02:20:21;;;;;;;9.43;5.07;;;6.60;1.00;;;;;;5054945;28;20200;-80
2021/04/25 02:22:47;;;;;;;11.07;5.73;;;6.60;1.00;;;;;;5051918;28;20259;-78
2021/04/25 02:25:15;;;;;;;9.70;5.50;;;6.60;1.00;;;;;;5054399;28;20173;-83
2021/04/25 02:27:41;;;;;;;9.00;4.27;;;6.60;1.00;;;;;;5054018;28;20179;-79
2021/04/25 02:30:10;;;;;;;11.17;5.37;;;6.60;1.00;;;;;;5051774;28;20177;-78
2021/04/25 02:32:36;;;;;;;8.90;5.27;;;6.50;1.00;;;;;;5052839;28;20216;-80
2021/04/25 02:35:04;;;;;;;11.07;5.77;;;6.50;1.00;;;;;;5052898;28;20207;-78
2021/04/25 02:37:29;;;;;;;8.27;5.30;;;6.40;1.00;;;;;;5052077;28;20181;-76
2021/04/25 02:39:55;;;;;;;10.73;5.30;;;6.40;1.00;;;;;;5053880;28;20488;-79
2021/04/25 02:42:21;;;;;;;9.60;5.33;;;6.40;1.00;;;;;;5053373;28;20671;-81
2021/04/25 02:44:46;;;;;;;9.43;5.23;;;6.40;1.00;;;;;;5053578;28;20173;-77
2021/04/25 02:47:12;;;;;;;9.83;5.60;;;6.30;1.00;;;;;;5052605;28;20638;-77
2021/04/25 02:49:38;;;;;;;11.50;5.60;;;6.30;1.00;;;;;;5053891;28;20204;-78
2021/04/25 02:52:04;;;;;;;10.47;5.27;;;6.20;1.00;;;;;;5053598;28;20309;-79
2021/04/25 02:54:29;;;;;;;7.13;4.47;;;6.20;1.00;;;;;;5053475;28;20219;-81
2021/04/25 02:56:55;;;;;;;8.13;4.90;;;6.20;1.00;;;;;;5053343;28;20173;-76
2021/04/25 02:59:21;;;;;;;9.03;5.40;;;6.20;1.00;;;;;;5052716;28;20563;-82
2021/04/25 03:01:47;;;;;;;9.47;5.00;;;6.20;1.00;;;;;;5053503;28;20169;-77
2021/04/25 03:04:12;;;;;;;10.40;5.93;;;6.10;1.00;;;;;;5053558;28;20205;-78
2021/04/25 03:06:38;;;;;;;14.60;6.13;;;6.10;1.00;;;;;;5053386;28;20635;-79
2021/04/25 03:09:04;;;;;;;11.00;5.87;;;6.10;1.00;;;;;;5052861;28;20176;-78
2021/04/25 03:11:29;;;;;;;9.57;5.37;;;6.10;1.00;;;;;;5052737;28;20177;-77
2021/04/25 03:13:55;;;;;;;12.00;5.87;;;6.10;1.00;;;;;;5053255;28;20660;-78
2021/04/25 03:16:21;;;;;;;12.93;6.10;;;6.10;1.00;;;;;;5051788;28;20204;-79
2021/04/25 03:18:46;;;;;;;9.97;6.07;;;6.00;1.00;;;;;;5053113;28;20176;-79
2021/04/25 03:21:12;;;;;;;11.33;6.17;;;6.00;1.00;;;;;;5052796;28;20196;-76
2021/04/25 03:23:38;;;;;;;9.90;5.90;;;6.00;1.00;;;;;;5051683;28;20231;-81
2021/04/25 03:26:03;;;;;;;12.60;6.77;;;6.00;1.00;;;;;;5052821;28;20256;-80
2021/04/25 03:28:29;;;;;;;9.90;6.10;;;6.00;1.00;;;;;;5052191;28;20698;-77
2021/04/25 03:30:55;;;;;;;17.07;6.83;;;5.90;1.00;;;;;;5052973;28;20189;-77
2021/04/25 03:33:21;;;;;;;10.77;6.40;;;5.90;1.00;;;;;;5052808;28;20200;-78
2021/04/25 03:35:47;;;;;;;9.87;6.37;;;5.90;1.00;;;;;;5053136;28;20177;-77
2021/04/25 03:38:13;;;;;;;11.23;6.17;;;5.90;1.00;;;;;;5053071;28;20286;-79
2021/04/25 03:40:38;;;;;;;11.53;5.97;;;5.90;1.00;;;;;;5052669;28;20180;-81
2021/04/25 03:43:04;;;;;;;11.50;6.23;;;5.90;1.00;;;;;;5052863;28;20249;-78
2021/04/25 03:45:30;;;;;;;11.77;6.67;;;5.80;1.00;;;;;;5052735;28;20187;-77
2021/04/25 03:47:55;;;;;;;9.90;5.93;;;5.80;1.00;;;;;;5052268;28;20220;-79
2021/04/25 03:50:24;;;;;;;12.93;6.73;;;5.70;3.60;;;;;;5052148;28;20265;-76
2021/04/25 03:52:50;;;;;;;10.90;5.63;;;5.70;3.20;;;;;;5052697;28;20274;-81
2021/04/25 03:55:17;;;;;;;9.33;6.30;;;5.70;3.20;;;;;;5052521;28;20625;-79
2021/04/25 03:57:43;;;;;;;13.83;7.10;;;5.70;4.30;;;;;;5052077;28;20204;-77
2021/04/25 04:00:11;;;;;;;15.83;6.70;;;5.70;5.30;;;;;;5051314;28;20213;-76
2021/04/25 04:02:37;;;;;;;11.17;6.10;;;5.70;3.20;;;;;;5052746;28;20177;-82
2021/04/25 04:05:04;;;;;;;12.20;6.83;;;5.70;2.40;;;;;;5051731;28;20173;-77
2021/04/25 04:07:30;;;;;;;10.93;6.70;;;5.80;2.00;;;;;;5052324;28;20161;-80
2021/04/25 04:09:56;;;;;;;11.07;6.30;;;5.80;1.00;;;;;;5052066;28;20649;-79
2021/04/25 04:12:21;;;;;;;13.57;7.03;;;5.70;3.60;;;;;;5052115;28;20168;-78
2021/04/25 04:14:47;;;;;;;10.43;6.37;;;5.70;3.40;;;;;;5052544;28;20784;-80
2021/04/25 04:17:13;;;;;;;10.20;6.27;;;5.70;3.00;;;;;;5052215;28;20181;-80
2021/04/25 04:19:40;;;;;;;15.23;7.07;;;5.60;4.00;;;;;;5052001;28;20259;-76
2021/04/25 04:22:05;;;;;;;12.90;7.43;;;5.60;5.80;;;;;;5052732;28;20234;-80
2021/04/25 04:24:31;;;;;;;15.30;7.37;;;5.60;6.30;;;;;;5051580;28;20177;-82
2021/04/25 04:26:57;;;;;;;12.40;7.00;;;5.60;6.30;;;;;;5052445;28;20199;-78
2021/04/25 04:29:22;;;;;;;11.53;6.80;;;5.50;6.30;;;;;;5052033;28;20695;-79
2021/04/25 04:31:48;;;;;;;11.93;7.37;;;5.40;10.80;;;;;;5052136;28;20216;-79
2021/04/25 04:34:14;;;;;;;18.53;7.43;;;5.40;15.20;;;;;;5052558;28;20217;-82
2021/04/25 04:36:40;;;;;;;15.70;8.07;;;5.40;19.50;;;;;;5052372;28;20569;-80
2021/04/25 04:39:05;;;;;;;13.87;7.67;;;5.40;22.10;;;;;;5051446;28;20235;-76
2021/04/25 04:41:31;;;;;;;13.70;6.93;;;5.40;23.00;;;;;;5051539;28;20248;-78
2021/04/25 04:43:58;;;;;;;13.40;8.10;;;5.40;20.50;;;;;;5052435;28;20177;-79
2021/04/25 04:46:24;;;;;;;14.30;8.43;;;5.40;19.40;;;;;;5051313;28;20169;-80
2021/04/25 04:48:49;;;;;;;13.17;7.60;;;5.50;19.10;;;;;;5052286;28;20531;-82
2021/04/25 04:51:15;;;;;;;12.77;7.80;;;5.50;17.90;;;;;;5052033;28;20215;-79
2021/04/25 04:53:41;;;;;;;11.93;7.10;;;5.50;17.30;;;;;;5051613;28;20201;-80
2021/04/25 04:56:06;;;;;;;13.73;7.83;;;5.60;14.10;;;;;;5052263;28;20162;-80
2021/04/25 04:58:32;;;;;;;13.90;7.57;;;5.60;8.40;;;;;;5052130;28;20185;-82
2021/04/25 05:00:58;;;;;;;14.13;7.57;;;5.60;13.20;;;;;;5051116;28;20177;-77
2021/04/25 05:03:23;;;;;;;10.97;6.80;;;5.60;11.50;;;;;;5052088;28;20185;-82
2021/04/25 05:05:49;;;;;;;13.77;6.93;;;5.60;8.30;;;;;;5052082;28;20637;-79
2021/04/25 05:08:14;;;;;;;13.07;7.07;;;5.50;8.90;;;;;;5051361;28;20169;-80
2021/04/25 05:10:40;;;;;;;11.97;6.77;;;5.50;16.10;;;;;;5054952;28;20603;-80
2021/04/25 05:13:10;;;;;;;11.87;7.30;;;5.50;9.70;;;;;;5055649;28;20197;-81
2021/04/25 05:15:39;;;;;;;12.43;6.70;;;5.60;12.10;;;;;;5055598;28;20181;-80
2021/04/25 05:18:05;;;;;;;13.93;8.53;;;5.60;10.50;;;;;;5055694;28;20633;-82
2021/04/25 05:20:31;;;;;;;10.17;6.30;;;5.60;8.40;;;;;;5055153;28;20271;-76
2021/04/25 05:22:58;;;;;;;13.83;7.57;;;5.70;4.50;;;;;;5054651;28;20252;-76
2021/04/25 05:25:24;;;;;;;17.10;7.60;;;5.70;2.50;;;;;;5054861;28;20173;-81
2021/04/25 05:27:50;;;;;;;12.17;6.40;;;5.70;2.80;;;;;;5055076;28;20180;-81
2021/04/25 05:30:17;;;;;;;11.50;6.70;;;5.80;1.00;;;;;;5054674;28;20231;-77
2021/04/25 05:32:42;;;;;;;12.47;7.20;;;5.80;1.00;;;;;;5054459;28;20209;-80
2021/04/25 05:35:09;;;;;;;11.80;7.10;;;5.80;1.00;;;;;;5054198;28;20204;-77
2021/04/25 05:37:35;;;;;;;11.80;6.77;;;5.90;1.00;;;;;;5054583;28;20165;-80
2021/04/25 05:40:01;;;;;;;13.67;7.17;;;5.90;1.00;;;;;;5054501;28;20201;-82
2021/04/25 05:42:27;;;;;;;10.70;6.33;;;5.90;1.00;;;;;;5053782;28;20200;-80
2021/04/25 05:44:54;;;;;;;13.13;6.70;;;6.00;1.00;;;;;;5054823;28;20180;-79
2021/04/25 05:47:20;;;;;;;12.00;6.33;;;6.00;1.00;;;;;;5054440;28;20172;-78
2021/04/25 05:49:46;;;;;;;13.77;7.50;;;6.00;1.00;;;;;;5054470;28;20209;-82
2021/04/25 05:52:11;;;;;;;11.57;6.17;;;6.00;1.00;;;;;;5054890;28;20593;-77
2021/04/25 05:54:37;;;;;;;9.83;6.43;;;6.00;1.00;;;;;;5054801;28;20294;-81
2021/04/25 05:57:06;;;;;;;10.97;6.43;;;6.00;1.00;;;;;;5052653;28;20169;-77
2021/04/25 05:59:31;;;;;;;10.07;5.63;;;6.00;1.00;;;;;;5054754;28;20679;-81
2021/04/25 06:01:57;;;;;;;10.23;6.40;;;6.10;1.00;;;;;;5053332;28;20213;-77
2021/04/25 06:04:22;;;;;;;8.57;5.00;;;6.10;1.00;;;;;;5052271;28;20207;-80
2021/04/25 06:06:48;;;;;;;9.57;5.57;;;6.20;1.00;;;;;;5053788;28;20180;-80
2021/04/25 06:09:14;;;;;;;12.23;5.77;;;6.20;1.00;;;;;;5054484;28;20176;-82
2021/04/25 06:11:39;;;;;;;10.77;5.87;;;6.30;1.00;;;;;;5053875;28;20169;-78
2021/04/25 06:14:05;;;;;;;9.37;5.50;;;6.30;1.00;;;;;;5054495;28;20211;-77
2021/04/25 06:16:32;;;;;;;11.53;4.97;;;6.30;1.00;;;;;;5053822;28;20161;-77
2021/04/25 06:18:57;;;;;;;10.83;5.90;;;6.40;1.00;;;;;;5053360;28;20197;-77
2021/04/25 06:21:23;;;;;;;10.50;5.43;;;6.40;1.00;;;;;;5053507;28;20219;-81
2021/04/25 06:23:49;;;;;;;10.33;6.10;;;6.40;1.00;;;;;;5053331;28;20192;-78
2021/04/25 06:26:15;;;;;;;9.50;5.60;;;6.30;1.00;;;;;;5053433;28;20176;-80
2021/04/25 06:28:41;;;;;;;10.03;5.07;;;6.40;1.00;;;;;;5054096;28;20642;-77
2021/04/25 06:31:06;;;;;;;7.57;5.07;;;6.30;1.00;;;;;;5053696;28;20188;-77
2021/04/25 06:33:32;;;;;;;8.73;4.60;;;6.30;1.00;;;;;;5051255;28;20205;-83
2021/04/25 06:35:57;;;;;;;8.23;5.10;;;6.40;1.00;;;;;;5053969;28;20165;-78
2021/04/25 06:38:24;;;;;;;8.43;5.30;;;6.40;1.00;;;;;;5054109;28;20203;-77
2021/04/25 06:40:49;;;;;;;9.20;4.90;;;6.50;1.00;;;;;;5053467;28;20252;-76
2021/04/25 06:43:16;;;;;;;7.40;4.73;;;6.60;1.00;;;;;;5051748;28;20165;-77
2021/04/25 06:45:42;;;;;;;10.90;4.27;;;6.70;1.00;;;;;;5053855;28;20181;-81
2021/04/25 06:48:07;;;;;;;9.23;4.43;;;6.70;1.00;;;;;;5053485;28;20169;-78
2021/04/25 06:50:33;;;;;;;9.17;4.60;;;6.70;1.00;;;;;;5053702;28;20177;-78
2021/04/25 06:52:59;;;;;;;8.97;4.57;;;6.80;1.00;;;;;;5052529;28;20715;-80
2021/04/25 06:55:26;;;;;;;7.97;5.17;;;6.80;1.00;;;;;;5053369;28;20164;-80
2021/04/25 06:57:52;;;;;;;8.70;3.97;;;6.90;1.00;;;;;;5053037;28;20180;-78
2021/04/25 07:00:21;;;;;;;8.00;4.10;;;6.90;1.00;;;;;;5053415;28;20177;-77
2021/04/25 07:02:47;;;;;;;10.30;4.33;;;6.90;1.00;;;;;;5053829;28;20549;-81
2021/04/25 07:05:13;;;;;;;10.47;4.53;;;6.90;1.00;;;;;;5054421;28;20165;-79
2021/04/25 07:07:39;;;;;;;6.87;4.70;;;6.90;1.00;;;;;;5053007;28;20355;-78
2021/04/25 07:10:07;;;;;;;9.67;4.57;;;7.00;1.00;;;;;;5051039;28;20285;-79
2021/04/25 07:12:33;;;;;;;11.53;4.57;;;7.10;1.00;;;;;;5053098;28;20169;-77
2021/04/25 07:14:59;;;;;;;7.53;3.50;;;7.10;99.90;;;;;;5053100;28;20303;-81
2021/04/25 07:17:25;;;;;;;7.57;4.70;;;7.10;99.90;;;;;;5052149;28;20207;-81
2021/04/25 07:19:51;;;;;;;10.27;4.33;;;7.10;99.90;;;;;;5052213;28;20173;-78
2021/04/25 07:22:17;;;;;;;6.93;3.90;;;7.10;99.90;;;;;;5052961;28;20172;-81
2021/04/25 07:24:43;;;;;;;10.60;4.13;;;7.30;99.90;;;;;;5052451;28;20193;-79
2021/04/25 07:27:09;;;;;;;9.10;4.57;;;7.40;99.90;;;;;;5052417;28;20200;-80
2021/04/25 07:29:34;;;;;;;7.63;4.47;;;7.50;99.90;;;;;;5051540;28;20170;-78
2021/04/25 07:32:00;;;;;;;13.80;4.57;;;7.50;99.90;;;;;;5052278;28;20191;-81
2021/04/25 07:34:26;;;;;;;8.13;4.33;;;7.40;99.90;;;;;;5051868;28;20228;-83
2021/04/25 07:36:53;;;;;;;7.03;3.30;;;7.40;99.90;;;;;;5052474;28;20173;-82
2021/04/25 07:39:19;;;;;;;8.10;3.83;;;7.50;1.00;;;;;;5052126;28;20177;-80
2021/04/25 07:41:45;;;;;;;9.03;4.13;;;7.50;1.00;;;;;;5052405;28;20246;-83
2021/04/25 07:44:12;;;;;;;7.77;4.40;;;7.40;1.00;;;;;;5050568;28;20264;-85
2021/04/25 07:46:37;;;;;;;12.37;4.77;;;7.30;56.00;;;;;;5054574;28;20181;-78
2021/04/25 07:49:04;;;;;;;10.50;4.43;;;7.20;99.90;;;;;;5066851;28;20190;-84
2021/04/25 07:51:29;;;;;;;7.17;4.20;;;7.30;99.90;;;;;;5081129;28;20230;-83
2021/04/25 07:53:59;;;;;;;8.57;3.53;;;7.30;99.90;;;;;;5071423;28;20620;-82
2021/04/25 07:56:25;;;;;;;8.77;4.10;;;7.40;1.00;;;;;;5072046;28;20225;-83
2021/04/25 07:58:50;;;;;;;9.30;3.43;;;7.30;56.10;;;;;;5083671;28;20226;-81
2021/04/25 08:01:16;;;;;;;5.53;3.13;;;7.30;1.00;;;;;;5091929;28;20570;-84
2021/04/25 08:03:42;;;;;;;9.07;3.67;;;7.20;15.00;;;;;;5092263;28;20183;-83
2021/04/25 08:06:08;;;;;;;8.47;4.27;;;7.50;1.00;;;;;;5090821;28;20167;-85
2021/04/25 08:08:36;;;;;;;11.90;4.57;;;7.60;1.00;;;;;;5071418;28;20188;-85
2021/04/25 08:11:02;;;;;;;6.70;3.93;;;7.60;99.90;;;;;;5070296;28;20199;-86
2021/04/25 08:13:28;;;;;;;11.03;4.47;;;7.80;1.00;;;;;;5072001;28;20866;-80
2021/04/25 08:16:12;;;;;;;9.17;4.10;;;7.80;1.00;;;;;;5071306;28;20766;-84
2021/04/25 08:18:40;;;;;;;6.93;3.60;;;7.90;93.20;;;;;;5072080;28;20172;-87
2021/04/25 08:21:07;;;;;;;11.77;4.00;;;7.80;7.90;;;;;;5071466;28;20180;-81
2021/04/25 08:23:33;;;;;;;9.33;4.13;;;7.60;1.00;;;;;;5076153;28;20714;-82
2021/04/25 08:26:06;;;;;;;8.33;4.20;;;7.70;1.00;;;;;;5090311;28;20614;-81
2021/04/25 08:28:32;;;;;;;6.87;3.53;;;7.80;99.90;;;;;;5091873;28;20279;-81
2021/04/25 08:30:57;;;;;;;9.07;4.53;;;8.10;99.90;;;;;;5091424;28;20683;-76
2021/04/25 08:33:41;;;;;;;10.77;3.90;;;7.90;99.90;;;;;;5091742;28;20256;-84
2021/04/25 08:36:07;;;;;;;8.90;4.50;;;7.90;1.00;;;;;;5091426;28;20242;-81
2021/04/25 08:38:33;;;;;;;8.47;3.87;;;7.90;99.90;;;;;;5092069;28;20168;-77
2021/04/25 08:41:05;;;;;;;8.13;4.10;;;7.90;99.90;;;;;;5091561;28;20172;-84
2021/04/25 08:43:31;;;;;;;5.80;3.00;;;8.00;1.00;;;;;;5091550;28;20172;-84
2021/04/25 08:45:59;;;;;;;10.27;3.50;;;8.00;1.00;;;;;;5083115;28;20229;-81
2021/04/25 08:48:28;;;;;;;9.07;4.00;;;8.10;1.00;;;;;;5073624;28;20864;-79
2021/04/25 08:50:54;;;;;;;6.20;3.30;;;8.10;1.00;;;;;;5074368;28;20564;-79
2021/04/25 08:53:20;;;;;;;7.57;3.23;;;8.10;1.00;;;;;;5073112;28;20216;-82
2021/04/25 08:55:47;;;;;;;6.87;3.77;;;8.20;99.90;;;;;;5074654;28;20222;-78
2021/04/25 08:58:13;;;;;;;10.47;3.90;;;8.10;1.00;;;;;;5075490;28;20611;-82
2021/04/25 09:00:39;;;;;;;10.00;4.13;;;8.20;99.90;;;;;;5074635;28;20200;-81
2021/04/25 09:03:23;;;;;;;5.60;3.73;;;8.30;99.90;;;;;;5074723;28;20596;-85
2021/04/25 09:05:49;;;;;;;9.33;5.00;;;8.50;1.00;;;;;;5073748;28;20172;-83
2021/04/25 09:08:15;;;;;;;7.13;3.70;;;8.20;32.50;;;;;;5073090;28;20183;-84
2021/04/25 09:10:43;;;;;;;7.17;3.90;;;8.10;1.00;;;;;;5073013;28;20172;-84
2021/04/25 09:13:24;;;;;;;5.57;3.83;;;8.00;1.00;;;;;;5080157;28;20620;-82
2021/04/25 09:15:52;;;;;;;11.63;4.70;;;8.20;1.00;;;;;;5080117;28;20180;-82
2021/04/25 09:18:34;;;;;;;7.30;4.03;;;8.40;99.90;;;;;;5085774;28;20161;-81
2021/04/25 09:21:09;;;;;;;7.90;3.73;;;8.40;1.00;;;;;;5083901;28;20191;-76
2021/04/25 09:23:35;;;;;;;8.40;4.40;;;8.50;1.00;;;;;;5076090;28;20163;-78
2021/04/25 09:26:06;;;;;;;6.53;3.93;;;8.50;1.00;;;;;;5073650;28;20179;-80
2021/04/25 09:28:36;;;;;;;7.00;4.40;;;8.50;99.90;;;;;;5074770;28;20595;-81
2021/04/25 09:31:17;;;;;;;7.70;4.07;;;8.50;1.00;;;;;;5074391;28;20566;-82
2021/04/25 09:33:56;;;;;;;6.20;3.87;;;8.60;1.00;;;;;;5075770;28;20215;-83
2021/04/25 09:36:24;;;;;;;10.13;4.37;;;8.50;99.90;;;;;;5074579;28;20702;-86
2021/04/25 09:38:54;;;;;;;7.63;4.20;;;8.50;1.00;;;;;;5075145;28;20203;-83
2021/04/25 09:41:33;;;;;;;8.90;4.37;;;8.50;1.00;;;;;;5074401;28;20187;-83
2021/04/25 09:44:00;;;;;;;6.47;3.40;;;8.60;1.00;;;;;;5074650;28;20299;-86
2021/04/25 09:46:52;;;;;;;7.10;4.50;;;8.70;1.00;;;;;;5074009;28;20267;-85
2021/04/25 09:49:48;;;;;;;7.10;3.97;;;8.40;99.90;;;;;;5072657;28;20670;-80
2021/04/25 09:52:37;;;;;;;8.87;4.23;;;8.60;92.80;;;;;;5054251;28;20173;-80
2021/04/25 09:55:34;;;;;;;9.83;3.47;;;9.00;1.00;;;;;;5054052;28;20204;-83
2021/04/25 09:58:07;;;;;;;7.70;4.43;;;9.00;99.90;;;;;;5067040;28;20172;-84
2021/04/25 10:00:47;;;;;;;7.20;4.27;;;9.10;1.00;;;;;;5095034;28;20657;-81
2021/04/25 10:03:13;;;;;;;10.23;4.33;;;9.20;99.90;;;;;;5077292;28;20176;-82
2021/04/25 10:05:55;;;;;;;6.47;4.07;;;9.20;99.90;;;;;;5072683;28;20187;-88
2021/04/25 10:08:34;;;;;;;7.93;4.10;;;9.30;1.00;;;;;;5081590;28;20190;-85
2021/04/25 10:11:02;;;;;;;7.77;3.97;;;9.10;1.00;;;;;;5087409;28;20300;-84
2021/04/25 10:13:33;;;;;;;7.23;4.30;;;9.20;99.90;;;;;;5091838;28;20563;-84
2021/04/25 10:15:59;;;;;;;8.47;4.13;;;9.20;36.00;;;;;;5075156;28;20184;-85
2021/04/25 10:18:27;;;;;;;7.00;4.53;;;9.30;99.90;;;;;;5074099;28;20179;-86
2021/04/25 10:20:55;;;;;;;8.13;4.50;;;9.30;99.90;;;;;;5074107;28;20184;-83
2021/04/25 10:23:22;;;;;;;8.03;4.47;;;9.50;1.00;;;;;;5084130;28;20258;-85
2021/04/25 10:25:50;;;;;;;7.00;3.97;;;9.50;1.00;;;;;;5079000;28;20172;-84
2021/04/25 10:28:27;;;;;;;10.90;4.20;;;9.50;1.00;;;;;;5062184;28;20173;-87
2021/04/25 10:31:01;;;;;;;6.60;3.63;;;9.50;99.90;;;;;;5054501;28;20224;-85
2021/04/25 10:33:53;;;;;;;11.30;5.07;;;9.60;99.90;;;;;;5052678;28;20228;-80
2021/04/25 10:36:23;;;;;;;6.87;3.87;;;9.60;99.90;;;;;;5053628;28;20214;-86
2021/04/25 10:38:49;;;;;;;12.90;4.47;;;9.40;99.90;;;;;;5060464;28;20604;-83
2021/04/25 10:41:20;;;;;;;10.13;5.03;;;9.20;1.00;;;;;;5055930;28;20251;-80
2021/04/25 10:44:01;;;;;;;7.17;4.53;;;9.20;1.00;;;;;;5051918;28;20211;-86
2021/04/25 10:46:47;;;;;;;7.97;4.30;;;9.50;1.00;;;;;;5068095;28;20251;-80
2021/04/25 10:49:36;;;;;;;7.97;4.63;;;9.50;99.90;;;;;;5064134;28;20187;-80
2021/04/25 10:52:25;;;;;;;8.23;4.23;;;9.60;1.00;;;;;;5063534;28;20157;-82
2021/04/25 10:58:00;;;;;;;6.47;4.03;;;10.10;1.00;;;;;;5060916;28;20175;-81
2021/04/25 11:02:59;;;;;;;12.30;4.50;;;10.10;99.90;;;;;;5073289;28;20188;-81
2021/04/25 11:05:37;;;;;;;7.50;4.43;;;10.00;99.90;;;;;;5064804;28;20345;-84
2021/04/25 11:08:28;;;;;;;9.40;4.93;;;10.00;99.90;;;;;;5053309;28;20173;-82
2021/04/25 11:11:02;;;;;;;12.13;4.53;;;10.10;1.00;;;;;;5051913;28;20199;-82
2021/04/25 11:13:44;;;;;;;9.77;5.60;;;10.20;99.90;;;;;;5052591;28;20212;-80
2021/04/25 11:16:19;;;;;;;9.20;4.90;;;10.30;99.90;;;;;;5062963;28;20184;-86
2021/04/25 11:19:04;;;;;;;8.60;4.83;;;10.50;1.00;;;;;;5070852;28;20196;-83
2021/04/25 11:21:35;;;;;;;8.07;4.30;;;10.30;99.90;;;;;;5072305;28;20199;-85
2021/04/25 11:24:04;;;;;;;7.67;4.00;;;10.20;1.00;;;;;;5071976;28;20287;-89
2021/04/25 11:26:42;;;;;;;7.43;4.57;;;10.30;1.00;;;;;;5072162;28;20549;-85
2021/04/25 11:29:23;;;;;;;8.87;4.43;;;10.20;86.90;;;;;;5066794;28;20165;-82
2021/04/25 11:31:52;;;;;;;7.00;4.23;;;10.30;1.00;;;;;;5058517;28;21009;-81
2021/04/25 11:34:33;;;;;;;7.33;4.20;;;10.30;1.00;;;;;;5052424;28;20291;-79
2021/04/25 11:37:02;;;;;;;7.93;3.87;;;10.40;1.00;;;;;;5050800;28;20502;-85
2021/04/25 11:39:30;;;;;;;6.30;4.20;;;10.50;1.00;;;;;;5049238;28;20256;-79
2021/04/25 11:41:57;;;;;;;8.67;4.17;;;10.60;99.90;;;;;;5052248;28;20621;-81
2021/04/25 11:44:23;;;;;;;6.53;4.27;;;10.60;1.00;;;;;;5052088;28;20568;-79
2021/04/25 11:46:48;;;;;;;9.23;4.80;;;10.60;1.00;;;;;;5069302;28;20179;-84
2021/04/25 11:49:14;;;;;;;7.77;4.77;;;10.50;1.00;;;;;;5072037;28;20211;-81
2021/04/25 11:51:39;;;;;;;6.80;4.43;;;10.60;1.00;;;;;;5071795;28;20168;-81
2021/04/25 11:54:21;;;;;;;7.73;4.70;;;10.50;1.00;;;;;;5071331;28;20994;-82
2021/04/25 11:56:47;;;;;;;8.30;3.90;;;10.70;1.00;;;;;;5072021;28;20226;-81
2021/04/25 11:59:16;;;;;;;9.13;4.37;;;10.90;1.00;;;;;;5072359;28;20786;-80
2021/04/25 12:01:41;;;;;;;11.17;4.67;;;10.90;50.80;;;;;;5072369;28;20168;-80
2021/04/25 12:04:07;;;;;;;8.57;4.03;;;11.00;99.90;;;;;;5071738;28;20619;-80
2021/04/25 12:06:46;;;;;;;8.37;4.20;;;11.10;99.90;;;;;;5071255;28;20168;-78
2021/04/25 12:09:12;;;;;;;9.50;4.57;;;11.10;3.30;;;;;;5071377;28;20179;-79
2021/04/25 12:11:38;;;;;;;6.63;4.20;;;11.20;1.00;;;;;;5071602;28;20172;-82
2021/04/25 12:14:16;;;;;;;8.10;4.20;;;11.10;1.00;;;;;;5071624;28;20227;-78
2021/04/25 12:16:42;;;;;;;7.63;4.27;;;11.00;1.00;;;;;;5071494;28;20168;-82
2021/04/25 12:19:24;;;;;;;9.33;4.87;;;10.90;23.20;;;;;;5070462;28;20179;-84
2021/04/25 12:21:51;;;;;;;10.13;4.93;;;11.10;1.00;;;;;;5075565;28;20199;-81
2021/04/25 12:24:21;;;;;;;7.93;4.27;;;11.20;1.00;;;;;;5074659;28;20172;-80
2021/04/25 12:26:47;;;;;;;8.80;4.50;;;11.50;1.00;;;;;;5075432;28;20168;-80
2021/04/25 12:29:13;;;;;;;8.80;4.43;;;11.60;1.00;;;;;;5075439;28;20174;-81
2021/04/25 12:31:45;;;;;;;9.97;4.40;;;11.60;1.00;;;;;;5075220;28;20292;-80
2021/04/25 12:34:17;;;;;;;8.50;4.43;;;11.60;99.90;;;;;;5074894;28;20211;-83
2021/04/25 12:36:51;;;;;;;9.90;4.50;;;11.70;1.00;;;;;;5074322;28;20264;-79
2021/04/25 12:39:17;;;;;;;14.77;5.20;;;11.70;99.90;;;;;;5058661;28;20176;-84
2021/04/25 12:41:51;;;;;;;7.73;4.73;;;11.80;1.00;;;;;;5061158;28;20671;-83
2021/04/25 12:44:19;;;;;;;8.43;4.13;;;11.80;1.00;;;;;;5066151;28;20255;-79
2021/04/25 12:46:55;;;;;;;7.43;3.63;;;11.80;1.00;;;;;;5065828;28;20226;-78
2021/04/25 12:49:20;;;;;;;6.80;3.93;;;11.70;99.90;;;;;;5063922;28;20271;-83
2021/04/25 12:51:48;;;;;;;7.37;3.73;;;11.70;99.90;;;;;;5062749;28;20281;-81
2021/04/25 12:54:16;;;;;;;9.47;4.73;;;11.80;1.00;;;;;;5062072;28;20342;-82
2021/04/25 12:56:43;;;;;;;8.33;4.17;;;11.80;99.90;;;;;;5064431;28;20164;-81
2021/04/25 12:59:30;;;;;;;11.90;4.20;;;11.70;99.90;;;;;;5066040;28;20199;-82
2021/04/25 13:01:55;;;;;;;7.43;5.03;;;12.00;99.90;;;;;;5067408;28;20168;-84
2021/04/25 13:04:34;;;;;;;15.47;4.70;;;12.20;99.90;;;;;;5059800;28;20173;-82
2021/04/25 13:07:15;;;;;;;8.23;4.40;;;12.10;99.90;;;;;;5053746;28;20180;-80
2021/04/25 13:10:10;;;;;;;10.23;4.47;;;12.00;99.90;;;;;;5054605;28;20169;-81